createdAt,value
2018-05-31T00:01:54.825Z,19.00
2018-05-31T00:04:23.901Z,17.67
2018-05-31T00:06:52.246Z,15.70
2018-05-31T00:09:20.618Z,18.67
2018-05-31T00:11:48.961Z,18.77
2018-05-31T00:14:17.313Z,19.67
2018-05-31T00:16:45.676Z,19.77
2018-05-31T00:19:13.984Z,19.20
2018-05-31T00:21:43.150Z,18.60
2018-05-31T00:24:11.613Z,19.50
2018-05-31T00:26:40.703Z,20.13
2018-05-31T00:29:09.021Z,18.37
2018-05-31T00:31:38.172Z,18.80
2018-05-31T00:34:06.567Z,21.10
2018-05-31T00:36:34.869Z,20.83
2018-05-31T00:39:03.184Z,21.47
2018-05-31T00:41:32.309Z,18.97
2018-05-31T00:44:00.627Z,18.83
2018-05-31T00:46:29.002Z,19.20
2018-05-31T00:48:57.309Z,18.60
2018-05-31T00:51:26.432Z,18.17
2018-05-31T00:53:54.706Z,19.17
2018-05-31T00:56:23.012Z,19.60
2018-05-31T00:58:51.377Z,18.87
2018-05-31T01:01:19.721Z,18.77
2018-05-31T01:03:48.030Z,19.40
2018-05-31T01:06:16.447Z,19.10
2018-05-31T01:08:44.819Z,20.07
2018-05-31T01:11:13.176Z,18.60
2018-05-31T01:13:42.304Z,18.60
2018-05-31T01:16:10.625Z,19.10
2018-05-31T01:18:39.112Z,18.53
2018-05-31T01:21:07.473Z,18.90
2018-05-31T01:23:36.551Z,19.70
2018-05-31T01:26:05.787Z,21.17
2018-05-31T01:28:34.127Z,20.10
2018-05-31T01:31:03.199Z,19.87
2018-05-31T01:33:31.554Z,20.07
2018-05-31T01:35:59.896Z,18.80
2018-05-31T01:38:32.481Z,17.17
2018-05-31T01:41:00.832Z,18.60
2018-05-31T01:43:29.965Z,19.63
2018-05-31T01:45:58.313Z,18.67
2018-05-31T01:48:26.644Z,17.70
2018-05-31T01:50:54.983Z,19.70
2018-05-31T01:53:24.205Z,19.20
2018-05-31T01:55:52.519Z,19.70
2018-05-31T01:58:20.849Z,21.23
2018-05-31T02:00:49.191Z,20.63
2018-05-31T02:03:17.635Z,21.47
2018-05-31T02:05:45.997Z,23.50
2018-05-31T02:08:14.357Z,24.53
2018-05-31T02:10:43.429Z,22.57
2018-05-31T02:13:11.740Z,23.60
2018-05-31T02:15:40.071Z,21.20
2018-05-31T02:18:08.458Z,19.77
2018-05-31T02:20:36.783Z,21.50
2018-05-31T02:23:05.103Z,19.60
2018-05-31T02:25:33.459Z,20.43
2018-05-31T02:28:01.800Z,18.60
2018-05-31T02:30:30.876Z,17.57
2018-05-31T02:32:59.221Z,19.30
2018-05-31T02:35:27.630Z,19.37
2018-05-31T02:37:55.941Z,18.00
2018-05-31T02:40:24.265Z,17.93
2018-05-31T02:42:52.608Z,16.57
2018-05-31T02:45:20.958Z,17.90
2018-05-31T02:47:50.101Z,18.83
2018-05-31T02:50:18.471Z,19.20
2018-05-31T02:52:46.857Z,19.40
2018-05-31T02:55:15.264Z,17.77
2018-05-31T02:57:43.569Z,18.13
2018-05-31T03:00:31.033Z,17.23
2018-05-31T03:02:59.358Z,17.80
2018-05-31T03:05:27.780Z,19.87
2018-05-31T03:07:56.119Z,17.73
2018-05-31T03:10:24.432Z,19.27
2018-05-31T03:12:52.795Z,18.00
2018-05-31T03:15:22.040Z,19.20
2018-05-31T03:17:50.443Z,20.63
2018-05-31T03:20:18.875Z,19.60
2018-05-31T03:22:47.949Z,19.17
2018-05-31T03:25:16.434Z,18.37
2018-05-31T03:27:45.708Z,18.57
2018-05-31T03:30:14.062Z,18.57
2018-05-31T03:32:42.414Z,18.80
2018-05-31T03:35:11.611Z,19.67
2018-05-31T03:37:40.137Z,19.13
2018-05-31T03:40:08.559Z,18.83
2018-05-31T03:42:37.644Z,20.23
2018-05-31T03:45:06.049Z,19.33
2018-05-31T03:47:34.390Z,18.50
2018-05-31T03:50:02.817Z,20.30
2018-05-31T03:52:31.225Z,18.53
2018-05-31T03:54:59.585Z,19.17
2018-05-31T03:57:27.936Z,22.90
2018-05-31T03:59:56.247Z,22.07
2018-05-31T04:02:24.611Z,21.90
2018-05-31T04:04:53.019Z,21.90
2018-05-31T04:07:21.368Z,20.90
2018-05-31T04:09:49.733Z,20.00
2018-05-31T04:12:18.826Z,21.27
2018-05-31T04:14:47.924Z,20.00
2018-05-31T04:17:17.013Z,18.70
2018-05-31T04:19:46.107Z,18.50
2018-05-31T04:22:15.227Z,17.23
2018-05-31T04:24:43.603Z,16.83
2018-05-31T04:27:12.013Z,18.97
2018-05-31T04:29:40.330Z,18.20
2018-05-31T04:32:08.676Z,20.50
2018-05-31T04:34:37.059Z,19.50
2018-05-31T04:37:05.540Z,18.67
2018-05-31T04:39:34.829Z,16.67
2018-05-31T04:42:03.204Z,19.77
2018-05-31T04:44:31.560Z,17.07
2018-05-31T04:46:59.942Z,18.43
2018-05-31T04:49:28.260Z,18.20
2018-05-31T04:51:56.589Z,15.43
2018-05-31T04:54:25.784Z,13.10
2018-05-31T04:56:54.126Z,12.40
2018-05-31T04:59:22.611Z,13.83
2018-05-31T05:01:50.959Z,14.80
2018-05-31T05:04:20.208Z,16.53
2018-05-31T05:06:48.578Z,14.40
2018-05-31T05:09:16.989Z,15.70
2018-05-31T05:11:46.145Z,17.77
2018-05-31T05:14:14.532Z,17.37
2018-05-31T05:16:43.750Z,15.80
2018-05-31T05:19:12.851Z,12.27
2018-05-31T05:21:41.942Z,12.20
2018-05-31T05:24:11.364Z,13.07
2018-05-31T05:26:39.723Z,14.50
2018-05-31T05:29:08.856Z,13.87
2018-05-31T05:31:37.226Z,14.60
2018-05-31T05:34:05.564Z,11.53
2018-05-31T05:36:34.125Z,13.03
2018-05-31T05:39:02.469Z,12.77
2018-05-31T05:41:30.830Z,13.60
2018-05-31T05:43:59.982Z,12.67
2018-05-31T05:46:28.311Z,11.93
2018-05-31T05:48:56.700Z,11.10
2018-05-31T05:51:25.039Z,10.77
2018-05-31T05:53:53.389Z,10.17
2018-05-31T05:56:21.874Z,10.23
2018-05-31T05:58:50.249Z,9.80
2018-05-31T06:01:18.588Z,11.00
2018-05-31T06:03:46.918Z,12.00
2018-05-31T06:06:15.257Z,10.23
2018-05-31T06:08:43.605Z,10.57
2018-05-31T06:11:12.696Z,10.47
2018-05-31T06:13:41.031Z,8.77
2018-05-31T06:16:09.538Z,10.87
2018-05-31T06:18:37.863Z,9.67
2018-05-31T06:21:06.947Z,10.17
2018-05-31T06:23:35.305Z,9.37
2018-05-31T06:26:03.626Z,9.60
2018-05-31T06:28:32.951Z,9.50
2018-05-31T06:31:01.271Z,9.57
2018-05-31T06:33:30.492Z,9.60
2018-05-31T06:35:59.574Z,10.27
2018-05-31T06:38:28.654Z,9.70
2018-05-31T06:40:57.087Z,8.40
2018-05-31T06:43:25.443Z,10.37
2018-05-31T06:45:53.813Z,9.13
2018-05-31T06:48:22.989Z,9.33
2018-05-31T06:50:51.305Z,9.27
2018-05-31T06:53:20.513Z,8.80
2018-05-31T06:55:48.886Z,8.90
2018-05-31T06:58:17.238Z,8.50
2018-05-31T07:00:45.562Z,7.60
2018-05-31T07:03:13.901Z,9.50
2018-05-31T07:05:43.060Z,8.20
2018-05-31T07:08:11.392Z,9.53
2018-05-31T07:10:40.607Z,8.27
2018-05-31T07:13:08.966Z,8.60
2018-05-31T07:15:38.173Z,9.50
2018-05-31T07:18:07.427Z,7.60
2018-05-31T07:20:35.744Z,8.17
2018-05-31T07:23:04.845Z,7.80
2018-05-31T07:25:33.909Z,8.17
2018-05-31T07:28:02.216Z,7.50
2018-05-31T07:30:31.413Z,8.90
2018-05-31T07:32:59.737Z,8.43
2018-05-31T07:35:28.121Z,9.17
2018-05-31T07:37:56.420Z,8.07
2018-05-31T07:40:25.737Z,7.53
2018-05-31T07:42:54.845Z,8.77
2018-05-31T07:45:23.917Z,7.03
2018-05-31T07:47:52.332Z,7.10
2018-05-31T07:50:20.622Z,6.33
2018-05-31T07:52:48.933Z,6.30
2018-05-31T07:55:17.298Z,6.83
2018-05-31T07:57:45.601Z,6.40
2018-05-31T08:00:15.671Z,6.83
2018-05-31T08:02:44.076Z,7.60
2018-05-31T08:05:12.527Z,6.70
2018-05-31T08:07:40.889Z,6.00
2018-05-31T08:10:09.249Z,7.30
2018-05-31T08:12:37.618Z,6.70
2018-05-31T08:15:05.921Z,7.47
2018-05-31T08:17:35.127Z,6.50
2018-05-31T08:20:04.223Z,7.27
2018-05-31T08:22:33.301Z,5.80
2018-05-31T08:25:01.597Z,6.40
2018-05-31T08:27:30.842Z,6.70
2018-05-31T08:29:59.209Z,6.40
2018-05-31T08:32:27.549Z,5.77
2018-05-31T08:34:56.706Z,7.03
2018-05-31T08:37:24.996Z,5.90
2018-05-31T08:39:53.304Z,5.17
2018-05-31T08:42:22.427Z,5.37
2018-05-31T08:44:50.801Z,5.27
2018-05-31T08:47:19.149Z,5.67
2018-05-31T08:49:47.567Z,5.83
2018-05-31T08:52:15.961Z,6.50
2018-05-31T08:54:44.264Z,6.23
2018-05-31T08:57:12.634Z,6.03
2018-05-31T08:59:40.951Z,7.70
2018-05-31T09:02:10.077Z,6.30
2018-05-31T09:04:38.431Z,6.07
2018-05-31T09:07:06.815Z,8.07
2018-05-31T09:09:35.979Z,7.07
2018-05-31T09:12:05.109Z,7.07
2018-05-31T09:14:34.251Z,6.70
2018-05-31T09:17:02.634Z,6.97
2018-05-31T09:19:31.060Z,7.63
2018-05-31T09:21:59.410Z,7.30
2018-05-31T09:24:27.750Z,7.03
2018-05-31T09:26:56.111Z,6.23
2018-05-31T09:29:24.533Z,6.93
2018-05-31T09:31:52.870Z,7.67
2018-05-31T09:34:22.029Z,6.17
2018-05-31T09:36:50.405Z,7.50
2018-05-31T09:39:18.888Z,7.60
2018-05-31T09:41:47.196Z,6.83
2018-05-31T09:44:16.395Z,8.37
2018-05-31T09:46:45.454Z,7.07
2018-05-31T09:49:13.821Z,6.97
2018-05-31T09:51:42.208Z,7.10
2018-05-31T09:54:11.418Z,6.80
2018-05-31T09:56:39.783Z,7.60
2018-05-31T09:59:08.236Z,6.83
2018-05-31T10:01:36.607Z,6.60
2018-05-31T10:04:05.116Z,7.33
2018-05-31T10:06:33.495Z,7.10
2018-05-31T10:09:01.872Z,6.10
2018-05-31T10:11:30.252Z,4.83
2018-05-31T10:13:58.656Z,5.80
2018-05-31T10:16:26.980Z,4.93
2018-05-31T10:18:55.367Z,4.87
2018-05-31T10:21:23.716Z,4.67
2018-05-31T10:23:52.103Z,5.00
2018-05-31T10:26:21.194Z,4.47
2018-05-31T10:28:50.388Z,4.77
2018-05-31T10:31:20.394Z,4.60
2018-05-31T10:33:48.930Z,5.33
2018-05-31T10:36:17.447Z,4.63
2018-05-31T10:38:45.750Z,5.77
2018-05-31T10:41:14.916Z,6.60
2018-05-31T10:43:44.193Z,6.30
2018-05-31T10:46:12.682Z,6.50
2018-05-31T10:48:41.055Z,8.03
2018-05-31T10:51:10.419Z,6.03
2018-05-31T10:53:39.516Z,6.37
2018-05-31T10:56:10.709Z,5.83
2018-05-31T10:58:39.590Z,6.30
2018-05-31T11:01:08.300Z,6.73
2018-05-31T11:03:36.722Z,5.10
2018-05-31T11:06:05.230Z,5.13
2018-05-31T11:08:33.645Z,5.20
2018-05-31T11:11:01.990Z,6.03
2018-05-31T11:13:30.631Z,5.30
2018-05-31T11:15:59.869Z,5.20
2018-05-31T11:18:29.031Z,4.80
2018-05-31T11:20:57.614Z,4.33
2018-05-31T11:23:26.041Z,4.33
2018-05-31T11:25:54.730Z,5.10
2018-05-31T11:28:23.472Z,4.67
2018-05-31T11:30:52.839Z,4.47
2018-05-31T11:33:21.764Z,5.20
2018-05-31T11:35:50.208Z,4.90
2018-05-31T11:38:18.892Z,5.00
2018-05-31T11:40:47.379Z,4.50
2018-05-31T11:43:16.244Z,5.30
2018-05-31T11:45:45.424Z,4.13
2018-05-31T11:48:14.940Z,4.40
2018-05-31T11:50:44.081Z,4.13
2018-05-31T11:53:13.687Z,4.20
2018-05-31T11:55:42.357Z,5.07
2018-05-31T11:58:10.829Z,4.60
2018-05-31T12:00:39.290Z,5.80
2018-05-31T12:03:08.426Z,4.70
2018-05-31T12:05:36.837Z,6.10
2018-05-31T12:08:05.371Z,5.40
2018-05-31T12:10:35.397Z,5.97
2018-05-31T12:13:03.897Z,4.60
2018-05-31T12:15:32.476Z,5.27
2018-05-31T12:18:00.969Z,5.50
2018-05-31T12:20:30.840Z,4.50
2018-05-31T12:22:59.198Z,4.53
2018-05-31T12:25:28.338Z,6.17
2018-05-31T12:27:56.687Z,4.80
2018-05-31T12:30:26.218Z,5.27
2018-05-31T12:32:55.983Z,5.17
2018-05-31T12:35:25.403Z,4.67
2018-05-31T12:37:54.121Z,4.30
2018-05-31T12:40:23.195Z,5.63
2018-05-31T12:42:52.508Z,4.50
2018-05-31T12:45:21.767Z,5.37
2018-05-31T12:47:50.868Z,4.90
2018-05-31T12:50:20.089Z,4.80
2018-05-31T12:52:48.710Z,5.13
2018-05-31T12:55:17.266Z,4.20
2018-05-31T12:57:45.773Z,5.10
2018-05-31T13:00:15.069Z,4.20
2018-05-31T13:02:44.073Z,5.00
2018-05-31T13:05:13.676Z,4.53
2018-05-31T13:07:42.540Z,4.30
2018-05-31T13:10:11.610Z,6.60
2018-05-31T13:12:40.001Z,7.00
2018-05-31T13:15:09.815Z,8.00
2018-05-31T13:17:38.920Z,8.63
2018-05-31T13:20:07.861Z,8.97
2018-05-31T13:22:37.688Z,8.70
2018-05-31T13:25:06.736Z,9.40
2018-05-31T13:27:36.031Z,9.13
2018-05-31T13:30:04.643Z,9.30
2018-05-31T13:32:33.068Z,8.13
2018-05-31T13:35:02.253Z,7.00
2018-05-31T13:37:30.627Z,6.30
2018-05-31T13:40:00.164Z,6.80
2018-05-31T13:42:29.361Z,5.97
2018-05-31T13:44:58.418Z,6.57
2018-05-31T13:47:27.297Z,6.53
2018-05-31T13:49:56.043Z,6.40
2018-05-31T13:52:24.613Z,7.20
2018-05-31T13:54:53.869Z,6.90
2018-05-31T13:57:22.460Z,6.93
2018-05-31T13:59:51.397Z,8.30
2018-05-31T14:02:21.014Z,8.93
2018-05-31T14:04:50.211Z,9.30
2018-05-31T14:07:18.576Z,11.97
2018-05-31T14:09:46.959Z,11.13
2018-05-31T14:12:16.091Z,8.27
2018-05-31T14:14:44.833Z,9.37
2018-05-31T14:17:13.458Z,9.53
2018-05-31T14:19:41.809Z,9.70
2018-05-31T14:22:11.031Z,10.43
2018-05-31T14:24:39.437Z,10.93
2018-05-31T14:27:07.977Z,10.97
2018-05-31T14:29:36.340Z,9.10
2018-05-31T14:32:05.505Z,7.37
2018-05-31T14:34:33.853Z,7.80
2018-05-31T14:37:02.248Z,8.20
2018-05-31T14:39:30.694Z,8.80
2018-05-31T14:41:59.832Z,6.93
2018-05-31T14:44:28.390Z,6.57
2018-05-31T14:46:56.741Z,6.70
2018-05-31T14:49:25.938Z,7.30
2018-05-31T14:51:55.095Z,6.90
2018-05-31T14:54:23.461Z,7.03
2018-05-31T14:56:51.932Z,6.87
2018-05-31T14:59:20.762Z,6.27
2018-05-31T15:01:49.181Z,7.20
2018-05-31T15:04:17.539Z,7.10
2018-05-31T15:06:45.860Z,6.77
2018-05-31T15:09:14.462Z,7.40
2018-05-31T15:11:43.028Z,7.40
2018-05-31T15:14:11.573Z,8.00
2018-05-31T15:16:40.014Z,6.00
2018-05-31T15:19:08.489Z,6.50
2018-05-31T15:21:36.906Z,6.37
2018-05-31T15:24:05.437Z,6.63
2018-05-31T15:26:33.792Z,7.97
2018-05-31T15:29:03.041Z,9.30
2018-05-31T15:31:31.455Z,8.67
2018-05-31T15:34:00.685Z,9.70
2018-05-31T15:36:30.455Z,8.83
2018-05-31T15:38:58.874Z,8.90
2018-05-31T15:41:27.346Z,10.50
2018-05-31T15:43:55.723Z,10.63
2018-05-31T15:46:24.915Z,9.40
2018-05-31T15:48:54.316Z,9.27
2018-05-31T15:51:24.090Z,11.90
2018-05-31T15:53:52.930Z,11.83
2018-05-31T15:56:22.577Z,9.77
2018-05-31T15:58:51.287Z,9.87
2018-05-31T16:01:22.020Z,10.33
2018-05-31T16:03:50.647Z,10.13
2018-05-31T16:06:19.425Z,9.40
2018-05-31T16:08:48.947Z,10.03
2018-05-31T16:11:18.122Z,9.57
2018-05-31T16:13:46.565Z,7.20
2018-05-31T16:16:15.835Z,8.87
2018-05-31T16:18:44.205Z,8.57
2018-05-31T16:21:13.326Z,8.33
2018-05-31T16:23:41.686Z,8.73
2018-05-31T16:26:10.065Z,6.97
2018-05-31T16:28:38.495Z,8.17
2018-05-31T16:31:07.060Z,9.53
2018-05-31T16:33:35.453Z,6.80
2018-05-31T16:36:03.825Z,8.00
2018-05-31T16:38:32.264Z,7.80
2018-05-31T16:41:01.412Z,8.57
2018-05-31T16:43:29.786Z,9.20
2018-05-31T16:45:58.239Z,7.50
2018-05-31T16:48:26.637Z,8.63
2018-05-31T16:50:54.989Z,8.40
2018-05-31T16:53:24.153Z,8.73
2018-05-31T16:55:52.526Z,7.83
2018-05-31T16:58:20.885Z,7.30
2018-05-31T17:00:49.260Z,7.77
2018-05-31T17:03:17.623Z,7.60
2018-05-31T17:05:45.986Z,7.77
2018-05-31T17:08:14.444Z,6.67
2018-05-31T17:10:43.639Z,8.43
2018-05-31T17:13:12.801Z,7.00
2018-05-31T17:15:41.161Z,7.43
2018-05-31T17:18:09.509Z,8.20
2018-05-31T17:20:37.852Z,6.77
2018-05-31T17:23:06.235Z,7.23
2018-05-31T17:25:34.565Z,7.77
2018-05-31T17:28:02.914Z,7.07
2018-05-31T17:30:32.112Z,6.60
2018-05-31T17:33:01.260Z,8.73
2018-05-31T17:35:29.689Z,7.47
2018-05-31T17:37:58.767Z,8.57
2018-05-31T17:40:27.122Z,7.93
2018-05-31T17:42:55.854Z,8.57
2018-05-31T17:45:24.296Z,6.97
2018-05-31T17:47:52.651Z,8.93
2018-05-31T17:50:21.718Z,8.43
2018-05-31T17:52:50.873Z,9.80
2018-05-31T17:55:20.011Z,9.27
2018-05-31T17:57:48.386Z,8.53
2018-05-31T18:00:17.491Z,9.70
2018-05-31T18:02:45.890Z,7.37
2018-05-31T18:05:15.046Z,9.37
2018-05-31T18:07:44.124Z,9.43
2018-05-31T18:10:12.429Z,8.13
2018-05-31T18:12:41.596Z,9.00
2018-05-31T18:15:09.899Z,9.03
2018-05-31T18:17:38.272Z,7.40
2018-05-31T18:20:07.577Z,7.70
2018-05-31T18:22:35.953Z,7.90
2018-05-31T18:25:04.380Z,10.10
2018-05-31T18:27:32.776Z,8.53
2018-05-31T18:30:01.208Z,8.97
2018-05-31T18:32:30.276Z,9.93
2018-05-31T18:34:58.577Z,8.23
2018-05-31T18:37:27.654Z,9.17
2018-05-31T18:39:55.976Z,9.90
2018-05-31T18:42:25.128Z,7.30
2018-05-31T18:44:54.321Z,8.20
2018-05-31T18:47:22.736Z,8.83
2018-05-31T18:49:51.155Z,8.80
2018-05-31T18:52:19.613Z,9.47
2018-05-31T18:54:48.074Z,8.20
2018-05-31T18:57:17.424Z,10.30
2018-05-31T18:59:45.818Z,10.80
2018-05-31T19:02:14.213Z,13.70
2018-05-31T19:04:42.519Z,15.30
2018-05-31T19:07:10.893Z,15.00
2018-05-31T19:09:39.239Z,18.67
2018-05-31T19:12:07.582Z,21.20
2018-05-31T19:14:35.897Z,21.67
2018-05-31T19:17:04.234Z,24.53
2018-05-31T19:19:38.424Z,23.80
2018-05-31T19:22:07.524Z,22.43
2018-05-31T19:24:42.418Z,22.33
2018-05-31T19:27:10.776Z,22.57
2018-05-31T19:29:39.155Z,18.07
2018-05-31T19:32:07.747Z,20.33
2018-05-31T19:34:36.044Z,21.37
2018-05-31T19:37:10.180Z,23.63
2018-05-31T19:39:39.294Z,22.70
2018-05-31T19:45:11.499Z,25.63
2018-05-31T19:47:39.869Z,27.40
2018-05-31T19:50:08.242Z,26.63
2018-05-31T19:52:42.197Z,24.83
2018-05-31T19:55:10.546Z,33.00
2018-05-31T19:57:44.774Z,31.77
2018-05-31T20:00:18.825Z,31.80
2018-05-31T20:02:53.691Z,33.40
2018-05-31T20:05:22.964Z,33.10
2018-05-31T20:07:52.158Z,37.50
2018-05-31T20:10:20.733Z,36.33
2018-05-31T20:12:49.070Z,36.07
2018-05-31T20:15:17.376Z,36.83
2018-05-31T20:17:46.603Z,40.63
2018-05-31T20:20:15.012Z,37.27
2018-05-31T20:22:43.881Z,39.17
2018-05-31T20:25:12.217Z,40.10
2018-05-31T20:27:40.590Z,41.40
2018-05-31T20:30:09.702Z,44.17
2018-05-31T20:32:38.152Z,44.20
2018-05-31T20:35:07.225Z,52.90
2018-05-31T20:37:35.664Z,52.47
2018-05-31T20:40:03.987Z,50.17
2018-05-31T20:42:32.300Z,56.00
2018-05-31T20:45:00.800Z,52.70
2018-05-31T20:47:29.144Z,53.13
2018-05-31T20:49:57.698Z,48.83
2018-05-31T20:52:26.795Z,48.13
2018-05-31T20:54:55.206Z,46.07
2018-05-31T20:57:23.532Z,45.00
2018-05-31T20:59:51.867Z,44.50
2018-05-31T21:02:20.253Z,45.70
2018-05-31T21:04:48.599Z,47.90
2018-05-31T21:07:17.367Z,49.97
2018-05-31T21:09:46.437Z,53.77
2018-05-31T21:12:16.334Z,54.97
2018-05-31T21:14:44.668Z,55.30
2018-05-31T21:17:13.879Z,50.30
2018-05-31T21:19:43.305Z,49.53
2018-05-31T21:22:11.668Z,50.90
2018-05-31T21:24:40.053Z,51.67
2018-05-31T21:27:08.531Z,49.50
2018-05-31T21:29:36.907Z,50.67
2018-05-31T21:32:06.068Z,55.73
2018-05-31T21:34:34.394Z,50.90
2018-05-31T21:37:02.769Z,54.10
2018-05-31T21:39:31.272Z,57.83
2018-05-31T21:41:59.685Z,61.17
2018-05-31T21:44:29.515Z,62.83
2018-05-31T21:46:58.597Z,58.03
2018-05-31T21:49:28.475Z,55.27
2018-05-31T21:51:56.844Z,57.23
2018-05-31T21:54:25.264Z,57.30
2018-05-31T21:56:55.211Z,57.93
2018-05-31T21:59:24.324Z,62.17
2018-05-31T22:01:52.668Z,62.13
2018-05-31T22:04:21.057Z,60.40
2018-05-31T22:06:50.136Z,60.93
2018-05-31T22:09:19.985Z,55.53
2018-05-31T22:11:48.297Z,61.90
2018-05-31T22:14:16.648Z,58.20
2018-05-31T22:16:45.056Z,60.47
2018-05-31T22:19:13.507Z,60.87
2018-05-31T22:21:41.840Z,58.97
2018-05-31T22:24:10.151Z,57.20
2018-05-31T22:26:39.247Z,58.07
2018-05-31T22:29:08.443Z,58.30
2018-05-31T22:31:37.537Z,58.93
2018-05-31T22:34:06.673Z,60.87
2018-05-31T22:36:35.193Z,62.07
2018-05-31T22:39:05.940Z,56.37
2018-05-31T22:41:34.314Z,61.07
2018-05-31T22:44:03.614Z,60.23
2018-05-31T22:46:32.756Z,58.87
2018-05-31T22:49:02.118Z,60.67
2018-05-31T22:51:31.238Z,62.60
2018-05-31T22:54:00.483Z,61.97
2018-05-31T22:56:28.814Z,61.17
2018-05-31T22:58:58.030Z,60.10
2018-05-31T23:01:26.466Z,63.40
2018-05-31T23:03:56.359Z,65.17
2018-05-31T23:06:25.496Z,60.60
2018-05-31T23:08:54.680Z,61.77
2018-05-31T23:11:24.707Z,57.63
2018-05-31T23:13:53.879Z,60.57
2018-05-31T23:16:22.257Z,51.00
2018-05-31T23:18:50.637Z,51.87
2018-05-31T23:21:20.600Z,51.77
2018-05-31T23:23:49.661Z,50.00
2018-05-31T23:26:18.071Z,47.60
2018-05-31T23:28:47.214Z,52.57
2018-05-31T23:31:15.525Z,47.27
2018-05-31T23:33:45.446Z,50.00
2018-05-31T23:36:13.743Z,49.57
2018-05-31T23:38:42.862Z,49.13
2018-05-31T23:41:11.237Z,58.57
2018-05-31T23:43:39.621Z,60.30
2018-05-31T23:46:08.020Z,57.07
2018-05-31T23:48:36.363Z,55.10
2018-05-31T23:51:04.728Z,57.23
2018-05-31T23:53:33.867Z,52.83
2018-05-31T23:56:02.225Z,52.90
2018-05-31T23:58:31.328Z,56.40
